sensor_id;sensor_type;location;lat;lon;timestamp;P1;durP1;ratioP1;P2;durP2;ratioP2
12163;SDS011;6145;50.192;10.064;2022-12-16T00:01:05;7.90;;;6.33;;
12163;SDS011;6145;50.192;10.064;2022-12-16T00:03:33;6.60;;;5.80;;
12163;SDS011;6145;50.192;10.064;2022-12-16T00:06:00;9.30;;;6.40;;
12163;SDS011;6145;50.192;10.064;2022-12-16T00:08:30;9.03;;;5.93;;
12163;SDS011;6145;50.192;10.064;2022-12-16T00:10:58;8.50;;;5.90;;
12163;SDS011;6145;50.192;10.064;2022-12-16T00:13:27;8.60;;;5.87;;
12163;SDS011;6145;50.192;10.064;2022-12-16T00:15:55;7.93;;;6.00;;
12163;SDS011;6145;50.192;10.064;2022-12-16T00:18:22;7.27;;;5.60;;
12163;SDS011;6145;50.192;10.064;2022-12-16T00:20:50;8.17;;;5.73;;
12163;SDS011;6145;50.192;10.064;2022-12-16T00:23:19;7.43;;;5.00;;
12163;SDS011;6145;50.192;10.064;2022-12-16T00:25:46;6.83;;;5.33;;
12163;SDS011;6145;50.192;10.064;2022-12-16T00:28:14;6.40;;;4.53;;
12163;SDS011;6145;50.192;10.064;2022-12-16T00:30:43;5.10;;;4.60;;
12163;SDS011;6145;50.192;10.064;2022-12-16T00:33:13;6.37;;;4.90;;
12163;SDS011;6145;50.192;10.064;2022-12-16T00:35:40;4.00;;;3.60;;
12163;SDS011;6145;50.192;10.064;2022-12-16T00:41:38;4.77;;;3.87;;
12163;SDS011;6145;50.192;10.064;2022-12-16T00:44:26;4.77;;;4.07;;
12163;SDS011;6145;50.192;10.064;2022-12-16T00:50:01;5.93;;;4.33;;
12163;SDS011;6145;50.192;10.064;2022-12-16T00:53:04;6.57;;;4.30;;
12163;SDS011;6145;50.192;10.064;2022-12-16T00:56:03;4.13;;;3.53;;
12163;SDS011;6145;50.192;10.064;2022-12-16T00:58:43;3.47;;;2.53;;
12163;SDS011;6145;50.192;10.064;2022-12-16T01:01:11;3.47;;;2.93;;
12163;SDS011;6145;50.192;10.064;2022-12-16T01:03:39;3.37;;;3.00;;
12163;SDS011;6145;50.192;10.064;2022-12-16T01:06:07;3.47;;;2.90;;
12163;SDS011;6145;50.192;10.064;2022-12-16T01:08:35;3.97;;;3.23;;
12163;SDS011;6145;50.192;10.064;2022-12-16T01:11:02;4.37;;;3.23;;
12163;SDS011;6145;50.192;10.064;2022-12-16T01:13:28;3.47;;;2.97;;
12163;SDS011;6145;50.192;10.064;2022-12-16T01:15:58;3.73;;;2.93;;
12163;SDS011;6145;50.192;10.064;2022-12-16T01:18:25;3.80;;;3.33;;
12163;SDS011;6145;50.192;10.064;2022-12-16T01:20:54;4.77;;;3.10;;
12163;SDS011;6145;50.192;10.064;2022-12-16T01:23:28;4.23;;;3.10;;
12163;SDS011;6145;50.192;10.064;2022-12-16T01:25:56;4.40;;;2.97;;
12163;SDS011;6145;50.192;10.064;2022-12-16T01:28:25;4.13;;;2.97;;
12163;SDS011;6145;50.192;10.064;2022-12-16T01:30:53;3.43;;;2.70;;
12163;SDS011;6145;50.192;10.064;2022-12-16T01:33:22;3.07;;;2.70;;
12163;SDS011;6145;50.192;10.064;2022-12-16T01:35:48;3.37;;;2.93;;
12163;SDS011;6145;50.192;10.064;2022-12-16T01:38:17;3.53;;;3.13;;
12163;SDS011;6145;50.192;10.064;2022-12-16T01:40:43;3.47;;;2.87;;
12163;SDS011;6145;50.192;10.064;2022-12-16T01:43:10;5.50;;;3.53;;
12163;SDS011;6145;50.192;10.064;2022-12-16T01:45:39;3.60;;;3.27;;
12163;SDS011;6145;50.192;10.064;2022-12-16T01:48:09;3.50;;;3.20;;
12163;SDS011;6145;50.192;10.064;2022-12-16T01:50:44;3.23;;;2.87;;
12163;SDS011;6145;50.192;10.064;2022-12-16T01:53:12;3.43;;;3.03;;
12163;SDS011;6145;50.192;10.064;2022-12-16T01:55:41;3.43;;;2.90;;
12163;SDS011;6145;50.192;10.064;2022-12-16T01:58:13;3.30;;;3.00;;
12163;SDS011;6145;50.192;10.064;2022-12-16T02:00:44;3.50;;;2.83;;
12163;SDS011;6145;50.192;10.064;2022-12-16T02:03:12;3.53;;;2.77;;
12163;SDS011;6145;50.192;10.064;2022-12-16T02:05:40;3.90;;;3.03;;
12163;SDS011;6145;50.192;10.064;2022-12-16T02:08:10;3.10;;;2.80;;
12163;SDS011;6145;50.192;10.064;2022-12-16T02:10:50;4.10;;;3.23;;
12163;SDS011;6145;50.192;10.064;2022-12-16T02:13:39;3.37;;;2.63;;
12163;SDS011;6145;50.192;10.064;2022-12-16T02:16:18;3.20;;;2.90;;
12163;SDS011;6145;50.192;10.064;2022-12-16T02:18:53;2.90;;;2.50;;
12163;SDS011;6145;50.192;10.064;2022-12-16T02:27:32;3.50;;;2.60;;
12163;SDS011;6145;50.192;10.064;2022-12-16T02:33:31;4.10;;;2.73;;
12163;SDS011;6145;50.192;10.064;2022-12-16T02:36:10;3.57;;;2.60;;
12163;SDS011;6145;50.192;10.064;2022-12-16T02:38:47;2.83;;;2.50;;
12163;SDS011;6145;50.192;10.064;2022-12-16T02:41:23;2.83;;;2.27;;
12163;SDS011;6145;50.192;10.064;2022-12-16T02:43:56;3.83;;;2.67;;
12163;SDS011;6145;50.192;10.064;2022-12-16T02:46:29;2.97;;;2.70;;
12163;SDS011;6145;50.192;10.064;2022-12-16T02:49:03;3.07;;;2.50;;
12163;SDS011;6145;50.192;10.064;2022-12-16T02:51:31;3.93;;;2.73;;
12163;SDS011;6145;50.192;10.064;2022-12-16T02:54:00;2.90;;;2.60;;
12163;SDS011;6145;50.192;10.064;2022-12-16T02:56:35;2.60;;;2.20;;
12163;SDS011;6145;50.192;10.064;2022-12-16T02:59:14;2.83;;;2.60;;
12163;SDS011;6145;50.192;10.064;2022-12-16T03:01:52;3.93;;;2.60;;
12163;SDS011;6145;50.192;10.064;2022-12-16T03:04:25;2.47;;;2.03;;
12163;SDS011;6145;50.192;10.064;2022-12-16T03:06:56;3.00;;;2.80;;
12163;SDS011;6145;50.192;10.064;2022-12-16T03:09:27;2.70;;;2.50;;
12163;SDS011;6145;50.192;10.064;2022-12-16T03:11:56;2.53;;;2.33;;
12163;SDS011;6145;50.192;10.064;2022-12-16T03:14:26;4.13;;;2.43;;
12163;SDS011;6145;50.192;10.064;2022-12-16T03:16:58;3.30;;;2.70;;
12163;SDS011;6145;50.192;10.064;2022-12-16T03:19:26;2.60;;;2.10;;
12163;SDS011;6145;50.192;10.064;2022-12-16T03:21:58;2.90;;;2.30;;
12163;SDS011;6145;50.192;10.064;2022-12-16T03:24:27;2.90;;;2.60;;
12163;SDS011;6145;50.192;10.064;2022-12-16T03:26:55;3.73;;;2.50;;
12163;SDS011;6145;50.192;10.064;2022-12-16T03:29:33;2.97;;;2.67;;
12163;SDS011;6145;50.192;10.064;2022-12-16T03:32:08;2.53;;;2.30;;
12163;SDS011;6145;50.192;10.064;2022-12-16T03:34:39;3.03;;;2.73;;
12163;SDS011;6145;50.192;10.064;2022-12-16T03:37:11;2.90;;;2.47;;
12163;SDS011;6145;50.192;10.064;2022-12-16T03:39:40;3.40;;;2.40;;
12163;SDS011;6145;50.192;10.064;2022-12-16T03:42:09;4.33;;;2.83;;
12163;SDS011;6145;50.192;10.064;2022-12-16T03:44:37;2.50;;;2.30;;
12163;SDS011;6145;50.192;10.064;2022-12-16T03:47:04;3.10;;;2.70;;
12163;SDS011;6145;50.192;10.064;2022-12-16T03:49:33;2.63;;;2.30;;
12163;SDS011;6145;50.192;10.064;2022-12-16T03:52:00;2.50;;;2.30;;
12163;SDS011;6145;50.192;10.064;2022-12-16T03:54:27;3.23;;;2.50;;
12163;SDS011;6145;50.192;10.064;2022-12-16T03:56:55;3.60;;;3.20;;
12163;SDS011;6145;50.192;10.064;2022-12-16T03:59:21;2.40;;;2.20;;
12163;SDS011;6145;50.192;10.064;2022-12-16T04:01:48;2.73;;;2.23;;
12163;SDS011;6145;50.192;10.064;2022-12-16T04:04:16;4.10;;;2.83;;
12163;SDS011;6145;50.192;10.064;2022-12-16T04:06:44;3.60;;;2.57;;
12163;SDS011;6145;50.192;10.064;2022-12-16T04:09:31;2.67;;;2.30;;
12163;SDS011;6145;50.192;10.064;2022-12-16T04:11:58;2.77;;;2.40;;
12163;SDS011;6145;50.192;10.064;2022-12-16T04:14:43;2.80;;;2.33;;
12163;SDS011;6145;50.192;10.064;2022-12-16T04:17:27;2.70;;;2.30;;
12163;SDS011;6145;50.192;10.064;2022-12-16T04:20:12;2.90;;;2.40;;
12163;SDS011;6145;50.192;10.064;2022-12-16T04:22:59;2.57;;;2.37;;
12163;SDS011;6145;50.192;10.064;2022-12-16T04:25:44;2.40;;;2.20;;
12163;SDS011;6145;50.192;10.064;2022-12-16T04:28:11;2.97;;;2.60;;
12163;SDS011;6145;50.192;10.064;2022-12-16T04:30:38;2.93;;;2.33;;
12163;SDS011;6145;50.192;10.064;2022-12-16T04:33:05;2.50;;;2.20;;
12163;SDS011;6145;50.192;10.064;2022-12-16T04:35:52;3.30;;;2.83;;
12163;SDS011;6145;50.192;10.064;2022-12-16T04:38:37;2.97;;;2.70;;
12163;SDS011;6145;50.192;10.064;2022-12-16T04:41:22;3.53;;;2.80;;
12163;SDS011;6145;50.192;10.064;2022-12-16T04:44:06;3.10;;;2.57;;
12163;SDS011;6145;50.192;10.064;2022-12-16T04:46:51;5.30;;;4.43;;
12163;SDS011;6145;50.192;10.064;2022-12-16T04:49:35;4.03;;;3.37;;
12163;SDS011;6145;50.192;10.064;2022-12-16T04:52:20;3.03;;;2.73;;
12163;SDS011;6145;50.192;10.064;2022-12-16T04:55:06;4.57;;;3.90;;
12163;SDS011;6145;50.192;10.064;2022-12-16T04:57:52;3.33;;;3.03;;
12163;SDS011;6145;50.192;10.064;2022-12-16T05:00:37;5.23;;;3.57;;
12163;SDS011;6145;50.192;10.064;2022-12-16T05:03:22;3.70;;;3.33;;
12163;SDS011;6145;50.192;10.064;2022-12-16T05:06:07;4.50;;;4.10;;
12163;SDS011;6145;50.192;10.064;2022-12-16T05:08:51;10.30;;;6.60;;
12163;SDS011;6145;50.192;10.064;2022-12-16T05:11:42;4.37;;;3.27;;
12163;SDS011;6145;50.192;10.064;2022-12-16T05:14:26;4.53;;;3.70;;
12163;SDS011;6145;50.192;10.064;2022-12-16T05:17:11;4.33;;;3.80;;
12163;SDS011;6145;50.192;10.064;2022-12-16T05:19:56;4.40;;;4.00;;
12163;SDS011;6145;50.192;10.064;2022-12-16T05:22:40;3.80;;;3.23;;
12163;SDS011;6145;50.192;10.064;2022-12-16T05:25:24;4.60;;;3.60;;
12163;SDS011;6145;50.192;10.064;2022-12-16T05:28:09;5.53;;;3.87;;
12163;SDS011;6145;50.192;10.064;2022-12-16T05:30:54;4.50;;;3.30;;
12163;SDS011;6145;50.192;10.064;2022-12-16T05:33:39;5.10;;;3.30;;
12163;SDS011;6145;50.192;10.064;2022-12-16T05:36:23;5.50;;;3.83;;
12163;SDS011;6145;50.192;10.064;2022-12-16T05:39:08;4.20;;;3.20;;
12163;SDS011;6145;50.192;10.064;2022-12-16T05:41:52;4.00;;;3.47;;
12163;SDS011;6145;50.192;10.064;2022-12-16T05:44:38;4.80;;;3.77;;
12163;SDS011;6145;50.192;10.064;2022-12-16T05:47:22;4.37;;;3.60;;
12163;SDS011;6145;50.192;10.064;2022-12-16T05:50:07;4.47;;;3.60;;
12163;SDS011;6145;50.192;10.064;2022-12-16T05:52:53;6.13;;;4.10;;
12163;SDS011;6145;50.192;10.064;2022-12-16T05:55:35;4.53;;;3.50;;
12163;SDS011;6145;50.192;10.064;2022-12-16T05:58:19;3.57;;;3.20;;
12163;SDS011;6145;50.192;10.064;2022-12-16T06:01:06;4.53;;;3.80;;
12163;SDS011;6145;50.192;10.064;2022-12-16T06:03:50;5.23;;;3.70;;
12163;SDS011;6145;50.192;10.064;2022-12-16T06:06:35;4.17;;;3.60;;
12163;SDS011;6145;50.192;10.064;2022-12-16T06:09:19;6.07;;;4.00;;
12163;SDS011;6145;50.192;10.064;2022-12-16T06:12:06;7.90;;;7.07;;
12163;SDS011;6145;50.192;10.064;2022-12-16T06:14:51;9.13;;;6.97;;
12163;SDS011;6145;50.192;10.064;2022-12-16T06:17:36;9.80;;;6.67;;
12163;SDS011;6145;50.192;10.064;2022-12-16T06:20:24;7.43;;;6.00;;
12163;SDS011;6145;50.192;10.064;2022-12-16T06:23:09;7.97;;;6.10;;
12163;SDS011;6145;50.192;10.064;2022-12-16T06:25:54;8.43;;;6.27;;
12163;SDS011;6145;50.192;10.064;2022-12-16T06:28:38;7.70;;;5.57;;
12163;SDS011;6145;50.192;10.064;2022-12-16T06:31:23;5.20;;;4.03;;
12163;SDS011;6145;50.192;10.064;2022-12-16T06:34:08;5.83;;;5.23;;
12163;SDS011;6145;50.192;10.064;2022-12-16T06:36:53;6.83;;;4.63;;
12163;SDS011;6145;50.192;10.064;2022-12-16T06:39:37;5.50;;;4.60;;
12163;SDS011;6145;50.192;10.064;2022-12-16T06:42:21;8.97;;;4.67;;
12163;SDS011;6145;50.192;10.064;2022-12-16T06:45:05;5.67;;;4.23;;
12163;SDS011;6145;50.192;10.064;2022-12-16T06:47:50;5.17;;;4.30;;
12163;SDS011;6145;50.192;10.064;2022-12-16T06:50:36;6.17;;;4.03;;
12163;SDS011;6145;50.192;10.064;2022-12-16T06:53:20;4.40;;;4.00;;
12163;SDS011;6145;50.192;10.064;2022-12-16T06:56:05;4.70;;;3.77;;
12163;SDS011;6145;50.192;10.064;2022-12-16T06:58:49;5.10;;;3.57;;
12163;SDS011;6145;50.192;10.064;2022-12-16T07:01:33;4.50;;;4.07;;
12163;SDS011;6145;50.192;10.064;2022-12-16T07:04:17;4.40;;;3.77;;
12163;SDS011;6145;50.192;10.064;2022-12-16T07:07:03;4.40;;;3.73;;
12163;SDS011;6145;50.192;10.064;2022-12-16T07:09:47;5.60;;;4.50;;
12163;SDS011;6145;50.192;10.064;2022-12-16T07:12:31;4.00;;;3.60;;
12163;SDS011;6145;50.192;10.064;2022-12-16T07:15:15;6.87;;;3.83;;
12163;SDS011;6145;50.192;10.064;2022-12-16T07:17:59;4.97;;;4.03;;
12163;SDS011;6145;50.192;10.064;2022-12-16T07:20:44;5.47;;;3.67;;
12163;SDS011;6145;50.192;10.064;2022-12-16T07:23:29;6.10;;;3.50;;
12163;SDS011;6145;50.192;10.064;2022-12-16T07:26:13;5.20;;;3.97;;
12163;SDS011;6145;50.192;10.064;2022-12-16T07:28:59;5.13;;;4.00;;
12163;SDS011;6145;50.192;10.064;2022-12-16T07:31:44;7.00;;;4.50;;
12163;SDS011;6145;50.192;10.064;2022-12-16T07:34:28;4.50;;;3.70;;
12163;SDS011;6145;50.192;10.064;2022-12-16T07:37:12;4.47;;;3.60;;
12163;SDS011;6145;50.192;10.064;2022-12-16T07:39:57;7.80;;;6.97;;
12163;SDS011;6145;50.192;10.064;2022-12-16T07:42:41;5.83;;;4.93;;
12163;SDS011;6145;50.192;10.064;2022-12-16T07:45:28;5.40;;;4.00;;
12163;SDS011;6145;50.192;10.064;2022-12-16T07:48:12;6.40;;;4.90;;
12163;SDS011;6145;50.192;10.064;2022-12-16T07:50:56;4.90;;;3.97;;
12163;SDS011;6145;50.192;10.064;2022-12-16T07:53:41;5.47;;;4.87;;
12163;SDS011;6145;50.192;10.064;2022-12-16T07:56:26;5.63;;;4.13;;
12163;SDS011;6145;50.192;10.064;2022-12-16T07:59:11;4.93;;;4.07;;
12163;SDS011;6145;50.192;10.064;2022-12-16T08:01:55;4.97;;;4.13;;
12163;SDS011;6145;50.192;10.064;2022-12-16T08:04:39;4.73;;;4.27;;
12163;SDS011;6145;50.192;10.064;2022-12-16T08:07:23;4.27;;;3.87;;
12163;SDS011;6145;50.192;10.064;2022-12-16T08:10:07;4.90;;;3.87;;
12163;SDS011;6145;50.192;10.064;2022-12-16T08:12:58;5.07;;;4.10;;
12163;SDS011;6145;50.192;10.064;2022-12-16T08:15:43;5.50;;;4.60;;
12163;SDS011;6145;50.192;10.064;2022-12-16T08:18:28;6.90;;;4.70;;
12163;SDS011;6145;50.192;10.064;2022-12-16T08:21:18;5.40;;;4.40;;
12163;SDS011;6145;50.192;10.064;2022-12-16T08:24:02;7.00;;;4.63;;
12163;SDS011;6145;50.192;10.064;2022-12-16T08:26:47;4.83;;;4.33;;
12163;SDS011;6145;50.192;10.064;2022-12-16T08:29:32;8.33;;;5.10;;
12163;SDS011;6145;50.192;10.064;2022-12-16T08:32:17;11.17;;;9.77;;
12163;SDS011;6145;50.192;10.064;2022-12-16T08:35:01;5.93;;;4.80;;
12163;SDS011;6145;50.192;10.064;2022-12-16T08:37:45;6.90;;;6.13;;
12163;SDS011;6145;50.192;10.064;2022-12-16T08:40:29;7.90;;;6.20;;
12163;SDS011;6145;50.192;10.064;2022-12-16T08:43:13;7.83;;;6.50;;
12163;SDS011;6145;50.192;10.064;2022-12-16T08:45:59;7.80;;;6.10;;
12163;SDS011;6145;50.192;10.064;2022-12-16T08:48:43;6.80;;;5.60;;
12163;SDS011;6145;50.192;10.064;2022-12-16T08:51:27;8.23;;;6.10;;
12163;SDS011;6145;50.192;10.064;2022-12-16T08:54:12;8.13;;;5.77;;
12163;SDS011;6145;50.192;10.064;2022-12-16T08:56:57;13.17;;;8.03;;
12163;SDS011;6145;50.192;10.064;2022-12-16T08:59:41;8.60;;;6.30;;
12163;SDS011;6145;50.192;10.064;2022-12-16T09:02:26;8.20;;;6.03;;
12163;SDS011;6145;50.192;10.064;2022-12-16T09:05:10;8.17;;;6.10;;
12163;SDS011;6145;50.192;10.064;2022-12-16T09:07:57;6.53;;;5.73;;
12163;SDS011;6145;50.192;10.064;2022-12-16T09:10:42;9.17;;;6.70;;
12163;SDS011;6145;50.192;10.064;2022-12-16T09:13:26;15.07;;;10.93;;
12163;SDS011;6145;50.192;10.064;2022-12-16T09:16:10;9.23;;;7.40;;
12163;SDS011;6145;50.192;10.064;2022-12-16T09:18:56;9.10;;;7.27;;
12163;SDS011;6145;50.192;10.064;2022-12-16T09:21:40;7.73;;;6.33;;
12163;SDS011;6145;50.192;10.064;2022-12-16T09:24:24;7.27;;;5.27;;
12163;SDS011;6145;50.192;10.064;2022-12-16T09:27:08;12.37;;;9.30;;
12163;SDS011;6145;50.192;10.064;2022-12-16T09:29:58;14.50;;;10.70;;
12163;SDS011;6145;50.192;10.064;2022-12-16T09:32:43;15.20;;;10.90;;
12163;SDS011;6145;50.192;10.064;2022-12-16T09:35:29;14.23;;;10.37;;
12163;SDS011;6145;50.192;10.064;2022-12-16T09:38:14;5.73;;;5.10;;
12163;SDS011;6145;50.192;10.064;2022-12-16T09:40:59;6.33;;;5.10;;
12163;SDS011;6145;50.192;10.064;2022-12-16T09:44:05;6.33;;;5.20;;
12163;SDS011;6145;50.192;10.064;2022-12-16T09:46:59;7.93;;;6.00;;
12163;SDS011;6145;50.192;10.064;2022-12-16T09:49:49;7.43;;;5.70;;
12163;SDS011;6145;50.192;10.064;2022-12-16T09:52:38;7.83;;;6.57;;
12163;SDS011;6145;50.192;10.064;2022-12-16T09:55:28;7.53;;;6.70;;
12163;SDS011;6145;50.192;10.064;2022-12-16T09:58:16;8.37;;;5.67;;
12163;SDS011;6145;50.192;10.064;2022-12-16T10:01:01;6.60;;;5.90;;
12163;SDS011;6145;50.192;10.064;2022-12-16T10:03:45;6.23;;;5.50;;
12163;SDS011;6145;50.192;10.064;2022-12-16T10:06:40;8.53;;;6.40;;
12163;SDS011;6145;50.192;10.064;2022-12-16T10:09:29;7.40;;;5.70;;
12163;SDS011;6145;50.192;10.064;2022-12-16T10:12:24;5.97;;;5.27;;
12163;SDS011;6145;50.192;10.064;2022-12-16T10:15:18;6.83;;;5.70;;
12163;SDS011;6145;50.192;10.064;2022-12-16T10:18:15;6.23;;;5.00;;
12163;SDS011;6145;50.192;10.064;2022-12-16T10:21:09;7.27;;;5.63;;
12163;SDS011;6145;50.192;10.064;2022-12-16T10:24:01;5.73;;;5.13;;
12163;SDS011;6145;50.192;10.064;2022-12-16T10:26:56;7.87;;;6.27;;
12163;SDS011;6145;50.192;10.064;2022-12-16T10:29:58;6.83;;;5.90;;
12163;SDS011;6145;50.192;10.064;2022-12-16T10:32:44;11.10;;;6.17;;
12163;SDS011;6145;50.192;10.064;2022-12-16T10:35:32;7.17;;;5.43;;
12163;SDS011;6145;50.192;10.064;2022-12-16T10:38:20;6.90;;;6.20;;
12163;SDS011;6145;50.192;10.064;2022-12-16T10:41:07;6.27;;;5.67;;
12163;SDS011;6145;50.192;10.064;2022-12-16T10:43:55;10.23;;;6.30;;
12163;SDS011;6145;50.192;10.064;2022-12-16T10:46:41;9.67;;;8.10;;
12163;SDS011;6145;50.192;10.064;2022-12-16T10:49:25;8.00;;;6.13;;
12163;SDS011;6145;50.192;10.064;2022-12-16T10:52:10;7.47;;;5.87;;
12163;SDS011;6145;50.192;10.064;2022-12-16T10:54:57;7.17;;;5.70;;
12163;SDS011;6145;50.192;10.064;2022-12-16T10:57:50;6.47;;;5.87;;
12163;SDS011;6145;50.192;10.064;2022-12-16T11:00:44;11.73;;;7.80;;
12163;SDS011;6145;50.192;10.064;2022-12-16T11:03:30;8.73;;;6.10;;
12163;SDS011;6145;50.192;10.064;2022-12-16T11:06:17;5.83;;;4.80;;
12163;SDS011;6145;50.192;10.064;2022-12-16T11:09:21;5.63;;;4.90;;
12163;SDS011;6145;50.192;10.064;2022-12-16T11:12:19;6.43;;;4.70;;
12163;SDS011;6145;50.192;10.064;2022-12-16T11:18:14;6.27;;;4.97;;
12163;SDS011;6145;50.192;10.064;2022-12-16T11:21:13;8.50;;;4.70;;
12163;SDS011;6145;50.192;10.064;2022-12-16T11:24:03;8.37;;;5.17;;
12163;SDS011;6145;50.192;10.064;2022-12-16T11:26:53;6.13;;;4.67;;
12163;SDS011;6145;50.192;10.064;2022-12-16T11:29:49;5.37;;;4.30;;
12163;SDS011;6145;50.192;10.064;2022-12-16T11:32:35;5.10;;;3.83;;
12163;SDS011;6145;50.192;10.064;2022-12-16T11:35:23;6.07;;;4.90;;
12163;SDS011;6145;50.192;10.064;2022-12-16T11:38:11;5.00;;;3.40;;
12163;SDS011;6145;50.192;10.064;2022-12-16T11:41:01;7.73;;;4.70;;
12163;SDS011;6145;50.192;10.064;2022-12-16T11:43:46;6.60;;;4.40;;
12163;SDS011;6145;50.192;10.064;2022-12-16T11:46:34;5.43;;;3.73;;
12163;SDS011;6145;50.192;10.064;2022-12-16T11:49:21;4.57;;;3.57;;
12163;SDS011;6145;50.192;10.064;2022-12-16T11:52:12;4.93;;;3.70;;
12163;SDS011;6145;50.192;10.064;2022-12-16T11:54:58;5.07;;;3.53;;
12163;SDS011;6145;50.192;10.064;2022-12-16T11:57:49;2.50;;;2.17;;
12163;SDS011;6145;50.192;10.064;2022-12-16T12:00:41;4.53;;;3.00;;
12163;SDS011;6145;50.192;10.064;2022-12-16T12:03:38;4.73;;;3.10;;
12163;SDS011;6145;50.192;10.064;2022-12-16T12:06:27;5.60;;;3.33;;
12163;SDS011;6145;50.192;10.064;2022-12-16T12:09:21;3.37;;;2.83;;
12163;SDS011;6145;50.192;10.064;2022-12-16T12:12:09;6.17;;;3.73;;
12163;SDS011;6145;50.192;10.064;2022-12-16T12:15:02;3.87;;;3.27;;
12163;SDS011;6145;50.192;10.064;2022-12-16T12:17:56;4.33;;;2.83;;
12163;SDS011;6145;50.192;10.064;2022-12-16T12:20:45;4.37;;;3.40;;
12163;SDS011;6145;50.192;10.064;2022-12-16T12:23:36;3.87;;;3.27;;
12163;SDS011;6145;50.192;10.064;2022-12-16T12:26:30;4.77;;;3.40;;
12163;SDS011;6145;50.192;10.064;2022-12-16T12:29:17;5.10;;;3.10;;
12163;SDS011;6145;50.192;10.064;2022-12-16T12:32:11;5.87;;;3.80;;
12163;SDS011;6145;50.192;10.064;2022-12-16T12:35:05;4.83;;;3.67;;
12163;SDS011;6145;50.192;10.064;2022-12-16T12:38:01;6.07;;;4.10;;
12163;SDS011;6145;50.192;10.064;2022-12-16T12:40:51;3.90;;;3.50;;
12163;SDS011;6145;50.192;10.064;2022-12-16T12:43:46;4.80;;;3.10;;
12163;SDS011;6145;50.192;10.064;2022-12-16T12:46:41;2.13;;;1.80;;
12163;SDS011;6145;50.192;10.064;2022-12-16T12:49:31;5.47;;;4.10;;
12163;SDS011;6145;50.192;10.064;2022-12-16T12:52:24;7.93;;;4.40;;
12163;SDS011;6145;50.192;10.064;2022-12-16T12:55:22;3.73;;;3.00;;
12163;SDS011;6145;50.192;10.064;2022-12-16T12:58:15;5.90;;;3.90;;
12163;SDS011;6145;50.192;10.064;2022-12-16T13:01:02;5.40;;;3.80;;
12163;SDS011;6145;50.192;10.064;2022-12-16T13:04:02;4.43;;;3.33;;
12163;SDS011;6145;50.192;10.064;2022-12-16T13:06:50;4.97;;;3.90;;
12163;SDS011;6145;50.192;10.064;2022-12-16T13:09:36;5.53;;;4.33;;
12163;SDS011;6145;50.192;10.064;2022-12-16T13:12:25;3.30;;;2.30;;
12163;SDS011;6145;50.192;10.064;2022-12-16T13:15:17;7.00;;;4.20;;
12163;SDS011;6145;50.192;10.064;2022-12-16T13:18:18;5.70;;;4.03;;
12163;SDS011;6145;50.192;10.064;2022-12-16T13:21:03;7.00;;;4.43;;
12163;SDS011;6145;50.192;10.064;2022-12-16T13:24:40;4.23;;;3.73;;
12163;SDS011;6145;50.192;10.064;2022-12-16T13:27:28;7.13;;;4.27;;
12163;SDS011;6145;50.192;10.064;2022-12-16T13:30:26;6.17;;;4.37;;
12163;SDS011;6145;50.192;10.064;2022-12-16T13:33:22;6.27;;;4.70;;
12163;SDS011;6145;50.192;10.064;2022-12-16T13:36:05;9.00;;;4.87;;
12163;SDS011;6145;50.192;10.064;2022-12-16T13:38:53;5.83;;;4.00;;
12163;SDS011;6145;50.192;10.064;2022-12-16T13:41:57;3.93;;;2.90;;
12163;SDS011;6145;50.192;10.064;2022-12-16T13:44:53;6.43;;;3.83;;
12163;SDS011;6145;50.192;10.064;2022-12-16T13:47:58;5.00;;;3.53;;
12163;SDS011;6145;50.192;10.064;2022-12-16T13:50:45;6.17;;;4.50;;
12163;SDS011;6145;50.192;10.064;2022-12-16T13:53:33;4.83;;;4.07;;
12163;SDS011;6145;50.192;10.064;2022-12-16T13:56:23;6.93;;;4.37;;
12163;SDS011;6145;50.192;10.064;2022-12-16T13:59:15;4.50;;;3.50;;
12163;SDS011;6145;50.192;10.064;2022-12-16T14:02:02;7.47;;;3.93;;
12163;SDS011;6145;50.192;10.064;2022-12-16T14:04:58;4.70;;;3.33;;
12163;SDS011;6145;50.192;10.064;2022-12-16T14:07:43;6.40;;;4.07;;
12163;SDS011;6145;50.192;10.064;2022-12-16T14:10:28;5.90;;;3.83;;
12163;SDS011;6145;50.192;10.064;2022-12-16T14:13:15;6.83;;;4.20;;
12163;SDS011;6145;50.192;10.064;2022-12-16T14:16:05;6.87;;;4.23;;
12163;SDS011;6145;50.192;10.064;2022-12-16T14:19:02;7.00;;;4.60;;
12163;SDS011;6145;50.192;10.064;2022-12-16T14:21:58;5.97;;;4.37;;
12163;SDS011;6145;50.192;10.064;2022-12-16T14:24:47;6.77;;;5.03;;
12163;SDS011;6145;50.192;10.064;2022-12-16T14:27:32;6.70;;;4.40;;
12163;SDS011;6145;50.192;10.064;2022-12-16T14:30:18;7.03;;;4.13;;
12163;SDS011;6145;50.192;10.064;2022-12-16T14:33:16;7.60;;;4.20;;
12163;SDS011;6145;50.192;10.064;2022-12-16T14:36:16;7.73;;;4.80;;
12163;SDS011;6145;50.192;10.064;2022-12-16T14:39:08;5.70;;;4.27;;
12163;SDS011;6145;50.192;10.064;2022-12-16T14:41:53;5.07;;;4.17;;
12163;SDS011;6145;50.192;10.064;2022-12-16T14:44:37;5.80;;;3.90;;
12163;SDS011;6145;50.192;10.064;2022-12-16T14:47:21;7.03;;;4.37;;
12163;SDS011;6145;50.192;10.064;2022-12-16T14:50:15;7.00;;;4.33;;
12163;SDS011;6145;50.192;10.064;2022-12-16T14:53:13;8.50;;;4.67;;
12163;SDS011;6145;50.192;10.064;2022-12-16T14:56:10;5.47;;;3.80;;
12163;SDS011;6145;50.192;10.064;2022-12-16T14:59:14;6.10;;;3.97;;
12163;SDS011;6145;50.192;10.064;2022-12-16T15:02:01;9.23;;;5.30;;
12163;SDS011;6145;50.192;10.064;2022-12-16T15:04:57;8.67;;;4.97;;
12163;SDS011;6145;50.192;10.064;2022-12-16T15:07:44;7.83;;;5.20;;
12163;SDS011;6145;50.192;10.064;2022-12-16T15:10:28;7.50;;;6.10;;
12163;SDS011;6145;50.192;10.064;2022-12-16T15:13:14;6.43;;;4.47;;
12163;SDS011;6145;50.192;10.064;2022-12-16T15:16:00;8.37;;;5.30;;
12163;SDS011;6145;50.192;10.064;2022-12-16T15:18:46;8.00;;;5.20;;
12163;SDS011;6145;50.192;10.064;2022-12-16T15:21:42;8.13;;;4.63;;
12163;SDS011;6145;50.192;10.064;2022-12-16T15:24:29;6.40;;;4.60;;
12163;SDS011;6145;50.192;10.064;2022-12-16T15:27:22;10.53;;;4.90;;
12163;SDS011;6145;50.192;10.064;2022-12-16T15:33:18;10.60;;;5.60;;
12163;SDS011;6145;50.192;10.064;2022-12-16T15:36:04;7.67;;;5.13;;
12163;SDS011;6145;50.192;10.064;2022-12-16T15:39:07;6.47;;;4.90;;
12163;SDS011;6145;50.192;10.064;2022-12-16T15:41:55;6.50;;;5.00;;
12163;SDS011;6145;50.192;10.064;2022-12-16T15:44:44;8.83;;;5.17;;
12163;SDS011;6145;50.192;10.064;2022-12-16T15:47:32;9.17;;;4.80;;
12163;SDS011;6145;50.192;10.064;2022-12-16T15:50:18;5.80;;;4.60;;
12163;SDS011;6145;50.192;10.064;2022-12-16T15:53:15;7.30;;;4.37;;
12163;SDS011;6145;50.192;10.064;2022-12-16T15:56:14;6.97;;;4.50;;
12163;SDS011;6145;50.192;10.064;2022-12-16T15:59:13;6.47;;;4.37;;
12163;SDS011;6145;50.192;10.064;2022-12-16T16:02:14;6.87;;;5.17;;
12163;SDS011;6145;50.192;10.064;2022-12-16T16:05:01;8.33;;;4.57;;
12163;SDS011;6145;50.192;10.064;2022-12-16T16:07:45;6.03;;;4.27;;
12163;SDS011;6145;50.192;10.064;2022-12-16T16:10:29;6.43;;;4.93;;
12163;SDS011;6145;50.192;10.064;2022-12-16T16:13:14;6.00;;;4.20;;
12163;SDS011;6145;50.192;10.064;2022-12-16T16:15:59;8.47;;;4.57;;
12163;SDS011;6145;50.192;10.064;2022-12-16T16:18:45;6.07;;;4.40;;
12163;SDS011;6145;50.192;10.064;2022-12-16T16:21:29;6.97;;;4.63;;
12163;SDS011;6145;50.192;10.064;2022-12-16T16:24:14;6.30;;;5.23;;
12163;SDS011;6145;50.192;10.064;2022-12-16T16:26:59;5.53;;;4.80;;
12163;SDS011;6145;50.192;10.064;2022-12-16T16:29:44;7.77;;;4.73;;
12163;SDS011;6145;50.192;10.064;2022-12-16T16:32:36;7.97;;;5.73;;
12163;SDS011;6145;50.192;10.064;2022-12-16T16:35:20;7.30;;;5.70;;
12163;SDS011;6145;50.192;10.064;2022-12-16T16:38:04;7.50;;;5.93;;
12163;SDS011;6145;50.192;10.064;2022-12-16T16:40:48;7.03;;;6.03;;
12163;SDS011;6145;50.192;10.064;2022-12-16T16:43:32;13.80;;;11.13;;
12163;SDS011;6145;50.192;10.064;2022-12-16T16:46:21;9.47;;;5.90;;
12163;SDS011;6145;50.192;10.064;2022-12-16T16:49:17;9.20;;;6.60;;